createdAt,value
2022-11-15T00:00:57.149Z,100882.94
2022-11-15T00:03:26.646Z,100872.19
2022-11-15T00:05:53.301Z,100883.66
2022-11-15T00:08:20.135Z,100879.44
2022-11-15T00:10:57.020Z,100876.19
2022-11-15T00:13:23.762Z,100888.91
2022-11-15T00:15:50.358Z,100878.25
2022-11-15T00:18:17.570Z,100877.13
2022-11-15T00:20:44.692Z,100881.44
2022-11-15T00:23:11.637Z,100882.53
2022-11-15T00:25:40.197Z,100877.22
2022-11-15T00:28:06.710Z,100866.47
2022-11-15T00:30:33.250Z,100875.13
2022-11-15T00:33:06.747Z,100868.84
2022-11-15T00:35:34.583Z,100867.91
2022-11-15T00:38:02.040Z,100860.00
2022-11-15T00:40:28.865Z,100855.50
2022-11-15T00:42:55.417Z,100859.06
2022-11-15T00:45:22.089Z,100859.06
2022-11-15T00:47:48.620Z,100858.84
2022-11-15T00:50:15.625Z,100858.00
2022-11-15T00:52:42.575Z,100866.78
2022-11-15T00:55:15.052Z,100860.41
2022-11-15T00:57:41.934Z,100863.84
2022-11-15T01:00:09.581Z,100860.13
2022-11-15T01:02:36.214Z,100858.41
2022-11-15T01:05:03.194Z,100845.81
2022-11-15T01:07:29.799Z,100849.28
2022-11-15T01:09:56.397Z,100842.91
2022-11-15T01:12:22.900Z,100844.63
2022-11-15T01:14:50.526Z,100836.78
2022-11-15T01:17:17.185Z,100825.06
2022-11-15T01:19:43.678Z,100818.59
2022-11-15T01:22:10.195Z,100821.84
2022-11-15T01:24:36.795Z,100819.09
2022-11-15T01:27:03.307Z,100817.38
2022-11-15T01:29:29.775Z,100813.78
2022-11-15T01:31:56.378Z,100811.84
2022-11-15T01:34:22.876Z,100816.31
2022-11-15T01:36:49.425Z,100819.78
2022-11-15T01:39:16.400Z,100812.59
2022-11-15T01:41:42.941Z,100817.88
2022-11-15T01:44:37.280Z,100816.81
2022-11-15T01:47:08.684Z,100806.91
2022-11-15T01:49:38.941Z,100812.16
2022-11-15T01:52:09.909Z,100803.09
2022-11-15T01:54:36.798Z,100798.50
2022-11-15T01:57:08.981Z,100800.25
2022-11-15T01:59:37.932Z,100807.31
2022-11-15T02:02:04.507Z,100799.38
2022-11-15T02:04:38.592Z,100799.38
2022-11-15T02:07:07.766Z,100800.91
2022-11-15T02:09:34.437Z,100798.50
2022-11-15T02:12:01.365Z,100790.41
2022-11-15T02:14:29.971Z,100794.91
2022-11-15T02:17:31.305Z,100788.63
2022-11-15T02:20:07.009Z,100780.59
2022-11-15T02:22:42.532Z,100774.41
2022-11-15T02:25:38.788Z,100777.16
2022-11-15T02:28:43.761Z,100776.97
2022-11-15T02:31:37.473Z,100778.78
2022-11-15T02:34:17.679Z,100767.91
2022-11-15T02:37:09.970Z,100761.63
2022-11-15T02:39:58.948Z,100762.50
2022-11-15T02:42:48.497Z,100764.38
2022-11-15T02:45:23.649Z,100752.19
2022-11-15T02:47:53.449Z,100764.66
2022-11-15T02:50:25.520Z,100766.47
2022-11-15T02:52:52.726Z,100770.00
2022-11-15T02:55:57.524Z,100772.69
2022-11-15T02:58:49.629Z,100771.94
2022-11-15T03:01:39.034Z,100773.72
2022-11-15T03:04:37.012Z,100773.06
2022-11-15T03:07:24.633Z,100771.16
2022-11-15T03:10:27.523Z,100765.72
2022-11-15T03:13:02.113Z,100773.72
2022-11-15T03:15:32.416Z,100762.19
2022-11-15T03:18:05.680Z,100758.75
2022-11-15T03:20:33.532Z,100758.75
2022-11-15T03:23:07.884Z,100758.75
2022-11-15T03:25:37.830Z,100754.47
2022-11-15T03:28:06.762Z,100741.03
2022-11-15T03:30:35.567Z,100743.59
2022-11-15T03:33:05.177Z,100741.78
2022-11-15T03:35:38.014Z,100746.06
2022-11-15T03:38:27.063Z,100739.97
2022-11-15T03:41:01.572Z,100741.38
2022-11-15T03:43:39.861Z,100739.59
2022-11-15T03:46:15.636Z,100736.84
2022-11-15T03:48:47.925Z,100730.63
2022-11-15T03:51:14.858Z,100724.31
2022-11-15T03:53:42.001Z,100722.63
2022-11-15T03:56:08.584Z,100707.47
2022-11-15T03:58:35.209Z,100706.50
2022-11-15T04:01:01.865Z,100703.75
2022-11-15T04:03:28.609Z,100706.50
2022-11-15T04:05:55.283Z,100708.13
2022-11-15T04:08:21.794Z,100697.34
2022-11-15T04:10:50.455Z,100695.44
2022-11-15T04:13:16.922Z,100691.13
2022-11-15T04:15:43.449Z,100707.81
2022-11-15T04:18:09.958Z,100702.56
2022-11-15T04:20:54.797Z,100710.78
2022-11-15T04:23:42.116Z,100705.63
2022-11-15T04:26:13.658Z,100710.22
2022-11-15T04:28:58.506Z,100707.63
2022-11-15T04:31:25.209Z,100717.56
2022-11-15T04:33:51.757Z,100703.09
2022-11-15T04:36:37.122Z,100704.00
2022-11-15T04:39:03.954Z,100690.78
2022-11-15T04:41:30.635Z,100689.91
2022-11-15T04:43:57.322Z,100684.56
2022-11-15T04:46:24.793Z,100681.25
2022-11-15T04:48:58.034Z,100674.94
2022-11-15T04:51:25.340Z,100666.34
2022-11-15T04:53:51.812Z,100666.25
2022-11-15T04:56:18.311Z,100671.41
2022-11-15T04:58:44.853Z,100676.38
2022-11-15T05:01:15.011Z,100674.47
2022-11-15T05:04:01.404Z,100672.75
2022-11-15T05:06:28.224Z,100680.63
2022-11-15T05:08:55.581Z,100671.69
2022-11-15T05:11:22.676Z,100676.91
2022-11-15T05:13:49.670Z,100680.28
2022-11-15T05:16:16.153Z,100682.66
2022-11-15T05:18:42.640Z,100684.19
2022-11-15T05:21:11.722Z,100688.44
2022-11-15T05:23:38.644Z,100691.78
2022-11-15T05:26:09.389Z,100680.25
2022-11-15T05:28:37.537Z,100682.81
2022-11-15T05:31:17.294Z,100682.81
2022-11-15T05:33:45.385Z,100680.16
2022-11-15T05:36:18.068Z,100675.47
2022-11-15T05:38:46.502Z,100684.22
2022-11-15T05:41:14.470Z,100671.66
2022-11-15T05:43:42.594Z,100675.81
2022-11-15T05:46:09.386Z,100671.44
2022-11-15T05:48:38.712Z,100667.78
2022-11-15T05:51:07.655Z,100674.84
2022-11-15T05:53:34.556Z,100677.25
2022-11-15T05:56:01.677Z,100676.84
2022-11-15T05:58:28.174Z,100677.59
2022-11-15T06:00:55.798Z,100675.88
2022-11-15T06:03:22.290Z,100671.41
2022-11-15T06:05:48.779Z,100659.66
2022-11-15T06:08:15.290Z,100654.31
2022-11-15T06:10:41.806Z,100655.16
2022-11-15T06:13:08.314Z,100648.84
2022-11-15T06:15:35.354Z,100663.06
2022-11-15T06:18:02.310Z,100667.41
2022-11-15T06:20:30.480Z,100662.81
2022-11-15T06:23:00.851Z,100663.66
2022-11-15T06:25:29.177Z,100667.09
2022-11-15T06:27:56.812Z,100675.00
2022-11-15T06:30:24.336Z,100668.69
2022-11-15T06:32:53.284Z,100669.56
2022-11-15T06:35:19.813Z,100663.91
2022-11-15T06:37:46.293Z,100663.03
2022-11-15T06:40:12.962Z,100653.97
2022-11-15T06:42:39.461Z,100664.66
2022-11-15T06:45:06.421Z,100670.78
2022-11-15T06:47:32.906Z,100677.63
2022-11-15T06:49:59.478Z,100670.47
2022-11-15T06:52:26.040Z,100664.16
2022-11-15T06:54:52.558Z,100663.19
2022-11-15T06:57:19.060Z,100666.63
2022-11-15T06:59:45.613Z,100679.13
2022-11-15T07:02:15.179Z,100674.44
2022-11-15T07:04:41.722Z,100678.63
2022-11-15T07:07:08.297Z,100659.81
2022-11-15T07:09:34.847Z,100663.00
2022-11-15T07:12:07.285Z,100655.94
2022-11-15T07:14:34.320Z,100651.16
2022-11-15T07:17:00.829Z,100651.78
2022-11-15T07:19:27.378Z,100645.28
2022-11-15T07:21:53.848Z,100647.00
2022-11-15T07:24:20.333Z,100641.53
2022-11-15T07:26:46.831Z,100646.66
2022-11-15T07:29:13.527Z,100651.09
2022-11-15T07:31:40.169Z,100655.38
2022-11-15T07:34:06.670Z,100650.75
2022-11-15T07:36:35.213Z,100648.81
2022-11-15T07:39:01.846Z,100647.97
2022-11-15T07:41:28.382Z,100644.97
2022-11-15T07:43:54.846Z,100649.25
2022-11-15T07:46:21.334Z,100643.50
2022-11-15T07:48:47.861Z,100633.53
2022-11-15T07:51:18.140Z,100649.38
2022-11-15T07:53:44.936Z,100656.34
2022-11-15T07:56:12.002Z,100651.81
2022-11-15T07:58:38.495Z,100638.25
2022-11-15T08:01:06.864Z,100647.97
2022-11-15T08:03:34.749Z,100642.09
2022-11-15T08:06:01.589Z,100638.13
2022-11-15T08:08:28.363Z,100646.78
2022-11-15T08:10:54.925Z,100641.22
2022-11-15T08:13:22.293Z,100632.13
2022-11-15T08:15:52.238Z,100632.13
2022-11-15T08:18:23.001Z,100624.00
2022-11-15T08:20:49.499Z,100624.81
2022-11-15T08:23:15.998Z,100610.59
2022-11-15T08:25:42.594Z,100611.56
2022-11-15T08:28:11.578Z,100612.31
2022-11-15T08:30:42.500Z,100614.88
2022-11-15T08:33:13.610Z,100614.25
2022-11-15T08:35:41.957Z,100624.00
2022-11-15T08:38:09.908Z,100614.88
2022-11-15T08:40:36.674Z,100613.91
2022-11-15T08:43:03.943Z,100604.91
2022-11-15T08:45:32.059Z,100605.78
2022-11-15T08:47:58.859Z,100594.19
2022-11-15T08:50:25.392Z,100593.47
2022-11-15T08:52:51.937Z,100590.78
2022-11-15T08:55:18.625Z,100594.28
2022-11-15T08:57:45.446Z,100590.53
2022-11-15T09:00:13.366Z,100593.13
2022-11-15T09:02:40.998Z,100589.78
2022-11-15T09:05:08.213Z,100591.25
2022-11-15T09:07:34.857Z,100585.44
2022-11-15T09:10:01.562Z,100576.13
2022-11-15T09:12:28.505Z,100568.16
2022-11-15T09:14:55.687Z,100571.97
2022-11-15T09:17:25.023Z,100564.19
2022-11-15T09:19:51.925Z,100560.22
2022-11-15T09:22:19.062Z,100558.53
2022-11-15T09:24:45.625Z,100557.59
2022-11-15T09:27:12.721Z,100563.69
2022-11-15T09:29:39.285Z,100567.84
2022-11-15T09:32:05.858Z,100565.78
2022-11-15T09:34:32.385Z,100566.41
2022-11-15T09:36:58.891Z,100556.28
2022-11-15T09:39:25.388Z,100561.41
2022-11-15T09:42:02.454Z,100554.00
2022-11-15T09:44:44.410Z,100551.06
2022-11-15T09:47:48.894Z,100557.16
2022-11-15T09:50:33.441Z,100550.59
2022-11-15T09:52:59.975Z,100552.91
2022-11-15T09:55:41.922Z,100552.91
2022-11-15T09:58:30.585Z,100546.47
2022-11-15T10:01:01.018Z,100543.91
2022-11-15T10:03:34.419Z,100540.75
2022-11-15T10:06:04.653Z,100535.47
2022-11-15T10:08:55.793Z,100530.34
2022-11-15T10:11:42.246Z,100536.56
2022-11-15T10:14:19.671Z,100524.75
2022-11-15T10:17:10.333Z,100515.63
2022-11-15T10:19:53.414Z,100513.53
2022-11-15T10:22:28.071Z,100509.88
2022-11-15T10:25:14.721Z,100514.28
2022-11-15T10:27:46.992Z,100511.72
2022-11-15T10:30:17.047Z,100507.19
2022-11-15T10:32:45.865Z,100497.22
2022-11-15T10:35:21.205Z,100492.97
2022-11-15T10:37:48.342Z,100492.97
2022-11-15T10:40:22.844Z,100495.50
2022-11-15T10:43:06.643Z,100489.91
2022-11-15T10:45:35.030Z,100487.22
2022-11-15T10:48:13.774Z,100484.91
2022-11-15T10:50:48.105Z,100482.56
2022-11-15T10:53:33.228Z,100478.44
2022-11-15T10:56:09.820Z,100468.53
2022-11-15T10:58:42.281Z,100467.44
2022-11-15T11:01:16.045Z,100462.34
2022-11-15T11:03:44.460Z,100450.53
2022-11-15T11:06:14.653Z,100450.97
2022-11-15T11:08:53.820Z,100450.63
2022-11-15T11:11:20.384Z,100449.53
2022-11-15T11:13:46.885Z,100450.16
2022-11-15T11:16:16.108Z,100451.84
2022-11-15T11:18:45.440Z,100440.63
2022-11-15T11:21:15.817Z,100436.25
2022-11-15T11:23:58.356Z,100435.53
2022-11-15T11:26:43.410Z,100440.13
2022-11-15T11:29:28.582Z,100440.38
2022-11-15T11:32:02.033Z,100430.66
2022-11-15T11:35:13.152Z,100421.84
2022-11-15T11:38:01.406Z,100432.94
2022-11-15T11:40:55.469Z,100430.63
2022-11-15T11:43:41.277Z,100422.94
2022-11-15T11:46:29.296Z,100411.38
2022-11-15T11:49:10.728Z,100418.81
2022-11-15T11:52:05.633Z,100414.63
2022-11-15T11:54:53.753Z,100415.84
2022-11-15T11:57:48.249Z,100410.47
2022-11-15T12:00:28.515Z,100406.00
2022-11-15T12:03:13.588Z,100401.34
2022-11-15T12:05:47.726Z,100386.03
2022-11-15T12:08:31.372Z,100384.06
2022-11-15T12:11:30.593Z,100379.69
2022-11-15T12:14:04.626Z,100379.69
2022-11-15T12:16:33.294Z,100380.41
2022-11-15T12:19:04.515Z,100373.84
2022-11-15T12:21:58.433Z,100367.50
2022-11-15T12:24:30.894Z,100359.19
2022-11-15T12:27:11.324Z,100360.91
2022-11-15T12:29:44.413Z,100366.50
2022-11-15T12:32:30.764Z,100361.41
2022-11-15T12:34:58.789Z,100355.28
2022-11-15T12:37:38.747Z,100347.38
2022-11-15T12:40:08.325Z,100352.13
2022-11-15T12:43:00.603Z,100346.03
2022-11-15T12:45:36.250Z,100339.59
2022-11-15T12:48:20.042Z,100330.06
2022-11-15T12:50:55.229Z,100332.63
2022-11-15T12:53:28.656Z,100325.19
2022-11-15T12:56:22.618Z,100327.88
2022-11-15T12:58:59.396Z,100327.16
2022-11-15T13:01:46.116Z,100327.16
2022-11-15T13:04:27.857Z,100335.81
2022-11-15T13:06:54.322Z,100328.75
2022-11-15T13:09:32.852Z,100335.31
2022-11-15T13:12:04.946Z,100334.31
2022-11-15T13:14:51.434Z,100333.84
2022-11-15T13:17:41.214Z,100333.59
2022-11-15T13:20:07.716Z,100327.66
2022-11-15T13:22:53.410Z,100330.56
2022-11-15T13:25:28.713Z,100315.56
2022-11-15T13:27:59.589Z,100310.97
2022-11-15T13:30:31.493Z,100309.72
2022-11-15T13:33:08.932Z,100312.66
2022-11-15T13:35:41.938Z,100303.88
2022-11-15T13:38:38.806Z,100302.78
2022-11-15T13:41:21.242Z,100298.28
2022-11-15T13:43:49.912Z,100288.53
2022-11-15T13:46:28.212Z,100276.34
2022-11-15T13:49:01.261Z,100287.44
2022-11-15T13:51:36.358Z,100282.91
2022-11-15T13:54:19.005Z,100277.06
2022-11-15T13:57:06.462Z,100283.66
2022-11-15T13:59:37.029Z,100275.63
2022-11-15T14:02:16.657Z,100284.50
2022-11-15T14:04:51.520Z,100276.72
2022-11-15T14:07:21.353Z,100274.88
2022-11-15T14:09:48.737Z,100273.91
2022-11-15T14:12:23.280Z,100273.16
2022-11-15T14:14:49.858Z,100272.69
2022-11-15T14:17:49.600Z,100263.94
2022-11-15T14:20:39.026Z,100267.81
2022-11-15T14:23:27.003Z,100261.97
2022-11-15T14:25:58.374Z,100261.34
2022-11-15T14:28:24.801Z,100247.13
2022-11-15T14:30:53.755Z,100252.34
2022-11-15T14:33:30.994Z,100240.91
2022-11-15T14:35:59.301Z,100235.91
2022-11-15T14:38:26.704Z,100238.81
2022-11-15T14:40:54.853Z,100231.75
2022-11-15T14:43:21.433Z,100237.38
2022-11-15T14:45:48.017Z,100231.16
2022-11-15T14:48:14.752Z,100232.03
2022-11-15T14:50:41.509Z,100234.69
2022-11-15T14:53:12.402Z,100238.31
2022-11-15T14:55:39.033Z,100228.59
2022-11-15T14:58:08.901Z,100225.91
2022-11-15T15:00:39.736Z,100217.28
2022-11-15T15:03:07.147Z,100221.03
2022-11-15T15:05:39.494Z,100219.72
2022-11-15T15:08:07.193Z,100227.00
2022-11-15T15:10:41.620Z,100219.81
2022-11-15T15:13:21.240Z,100219.09
2022-11-15T15:15:49.205Z,100213.00
2022-11-15T15:18:16.522Z,100212.03
2022-11-15T15:20:44.490Z,100203.16
2022-11-15T15:23:21.333Z,100203.16
2022-11-15T15:25:50.011Z,100212.28
2022-11-15T15:28:16.734Z,100210.19
2022-11-15T15:30:43.302Z,100210.56
2022-11-15T15:33:09.815Z,100220.53
2022-11-15T15:35:36.473Z,100217.03
2022-11-15T15:38:04.344Z,100224.06
2022-11-15T15:40:33.606Z,100225.06
2022-11-15T15:43:00.771Z,100223.09
2022-11-15T15:45:28.677Z,100218.09
2022-11-15T15:47:55.235Z,100215.53
2022-11-15T15:50:24.715Z,100209.22
2022-11-15T15:52:53.033Z,100210.19
2022-11-15T15:55:20.112Z,100203.13
2022-11-15T15:57:47.304Z,100205.81
2022-11-15T16:00:14.617Z,100206.41
2022-11-15T16:02:41.961Z,100203.75
2022-11-15T16:05:09.304Z,100198.75
2022-11-15T16:07:35.842Z,100196.19
2022-11-15T16:10:03.706Z,100198.00
2022-11-15T16:12:36.469Z,100202.53
2022-11-15T16:15:04.089Z,100207.88
2022-11-15T16:17:39.595Z,100204.34
2022-11-15T16:20:07.310Z,100204.94
2022-11-15T16:22:33.797Z,100198.88
2022-11-15T16:25:00.298Z,100189.88
2022-11-15T16:27:26.838Z,100193.25
2022-11-15T16:29:53.358Z,100191.56
2022-11-15T16:32:20.088Z,100188.06
2022-11-15T16:34:49.218Z,100194.25
2022-11-15T16:37:25.583Z,100187.91
2022-11-15T16:39:53.992Z,100187.78
2022-11-15T16:42:23.700Z,100185.13
2022-11-15T16:44:50.197Z,100178.94
2022-11-15T16:47:22.981Z,100176.97
2022-11-15T16:49:49.524Z,100178.78
2022-11-15T16:52:21.033Z,100170.75
2022-11-15T16:54:48.118Z,100176.25
2022-11-15T16:57:14.627Z,100173.81
2022-11-15T16:59:41.106Z,100169.31
2022-11-15T17:02:13.980Z,100177.19
2022-11-15T17:04:40.659Z,100167.25
2022-11-15T17:07:07.302Z,100167.34
2022-11-15T17:09:34.421Z,100170.75
2022-11-15T17:12:00.928Z,100169.66
2022-11-15T17:14:27.505Z,100165.06
2022-11-15T17:16:55.390Z,100160.66
2022-11-15T17:19:21.919Z,100161.78
2022-11-15T17:21:52.435Z,100156.53
2022-11-15T17:24:21.128Z,100159.22
2022-11-15T17:26:48.021Z,100158.34
2022-11-15T17:29:14.515Z,100155.66
2022-11-15T17:31:41.024Z,100154.94
2022-11-15T17:34:07.702Z,100148.13
2022-11-15T17:36:35.180Z,100144.72
2022-11-15T17:39:04.084Z,100142.16
2022-11-15T17:41:30.855Z,100137.66
2022-11-15T17:43:59.754Z,100133.16
2022-11-15T17:46:27.751Z,100127.56
2022-11-15T17:48:55.754Z,100119.41
2022-11-15T17:51:24.062Z,100120.38
2022-11-15T17:53:51.544Z,100114.03
2022-11-15T17:56:20.893Z,100110.53
2022-11-15T17:58:49.331Z,100103.59
2022-11-15T18:01:21.837Z,100101.16
2022-11-15T18:03:48.945Z,100095.69
2022-11-15T18:06:16.634Z,100104.56
2022-11-15T18:08:44.709Z,100100.81
2022-11-15T18:11:20.804Z,100109.56
2022-11-15T18:13:53.043Z,100101.91
2022-11-15T18:16:21.931Z,100091.31
2022-11-15T18:18:49.809Z,100095.94
2022-11-15T18:21:21.869Z,100093.50
2022-11-15T18:23:52.725Z,100092.78
2022-11-15T18:26:23.037Z,100083.38
2022-11-15T18:28:53.886Z,100084.47
2022-11-15T18:31:21.412Z,100087.28
2022-11-15T18:33:49.296Z,100086.81
2022-11-15T18:36:28.043Z,100079.72
2022-11-15T18:38:56.524Z,100087.03
2022-11-15T18:41:25.448Z,100080.72
2022-11-15T18:43:52.691Z,100080.72
2022-11-15T18:46:21.147Z,100081.69
2022-11-15T18:48:50.558Z,100079.88
2022-11-15T18:51:19.929Z,100069.88
2022-11-15T18:53:47.171Z,100073.28
2022-11-15T18:56:16.383Z,100060.03
2022-11-15T18:58:45.133Z,100067.09
2022-11-15T19:01:14.938Z,100068.78
2022-11-15T19:03:43.858Z,100061.59
2022-11-15T19:06:23.161Z,100067.94
2022-11-15T19:08:51.390Z,100066.22
2022-11-15T19:11:24.176Z,100061.84
2022-11-15T19:14:03.191Z,100053.81
2022-11-15T19:16:31.469Z,100055.41
2022-11-15T19:19:00.116Z,100046.38
2022-11-15T19:21:27.751Z,100046.38
2022-11-15T19:23:56.397Z,100042.84
2022-11-15T19:26:24.207Z,100036.78
2022-11-15T19:28:55.567Z,100025.25
2022-11-15T19:31:23.719Z,100039.47
2022-11-15T19:33:51.245Z,100034.97
2022-11-15T19:36:20.642Z,100034.97
2022-11-15T19:38:47.607Z,100028.63
2022-11-15T19:41:16.894Z,100038.34
2022-11-15T19:43:43.895Z,100024.25
2022-11-15T19:46:12.327Z,100022.56
2022-11-15T19:48:39.235Z,100022.69
2022-11-15T19:51:14.525Z,100009.28
2022-11-15T19:53:42.315Z,100014.38
2022-11-15T19:56:12.658Z,100009.19
2022-11-15T19:58:39.889Z,100003.81
2022-11-15T20:01:10.766Z,100005.53
2022-11-15T20:03:39.106Z,100002.97
2022-11-15T20:06:11.834Z,99994.94
2022-11-15T20:08:38.390Z,99989.56
2022-11-15T20:11:05.662Z,99985.91
2022-11-15T20:13:32.214Z,99983.25
2022-11-15T20:15:59.551Z,99990.44
2022-11-15T20:18:27.672Z,99987.59
2022-11-15T20:20:56.666Z,99984.94
2022-11-15T20:23:23.611Z,99983.94
2022-11-15T20:25:50.176Z,99976.66
2022-11-15T20:28:36.940Z,99973.25
2022-11-15T20:31:03.610Z,99983.00
2022-11-15T20:33:30.231Z,99986.63
2022-11-15T20:35:56.937Z,99971.53
2022-11-15T20:38:23.775Z,99973.41
2022-11-15T20:40:56.015Z,99974.38
2022-11-15T20:43:25.533Z,99971.69
2022-11-15T20:45:52.081Z,99963.78
2022-11-15T20:48:18.640Z,99971.81
2022-11-15T20:50:47.034Z,99963.03
2022-11-15T20:53:16.674Z,99960.34
2022-11-15T20:55:47.752Z,99960.34
2022-11-15T20:58:15.592Z,99957.69
2022-11-15T21:00:43.194Z,99965.00
2022-11-15T21:03:09.802Z,99964.88
2022-11-15T21:05:40.842Z,99963.91
2022-11-15T21:08:07.953Z,99957.69
2022-11-15T21:10:53.705Z,99946.97
2022-11-15T21:13:20.427Z,99950.41
2022-11-15T21:15:47.260Z,99941.50
2022-11-15T21:18:14.214Z,99931.78
2022-11-15T21:20:41.399Z,99936.16
2022-11-15T21:23:07.992Z,99934.34
2022-11-15T21:25:34.814Z,99933.34
2022-11-15T21:28:01.361Z,99918.16
2022-11-15T21:30:27.876Z,99920.84
2022-11-15T21:32:54.614Z,99921.53
2022-11-15T21:35:21.227Z,99918.00
2022-11-15T21:37:54.962Z,99916.31
2022-11-15T21:40:23.168Z,99917.28
2022-11-15T21:42:49.674Z,99910.97
2022-11-15T21:45:16.570Z,99914.22
2022-11-15T21:47:46.048Z,99909.72
2022-11-15T21:50:13.062Z,99905.38
2022-11-15T21:52:40.693Z,99903.50
2022-11-15T21:55:08.441Z,99909.16
2022-11-15T21:57:34.936Z,99912.53
2022-11-15T22:00:20.264Z,99907.06
2022-11-15T22:02:46.768Z,99908.75
2022-11-15T22:05:13.422Z,99910.72
2022-11-15T22:07:39.952Z,99905.09
2022-11-15T22:10:06.882Z,99911.44
2022-11-15T22:12:33.374Z,99910.44
2022-11-15T22:14:59.901Z,99910.31
2022-11-15T22:17:46.463Z,99904.25
2022-11-15T22:20:42.466Z,99899.84
2022-11-15T22:23:00.150Z,99886.63
2022-11-15T22:25:26.686Z,99882.97
2022-11-15T22:27:54.144Z,99875.06
2022-11-15T22:30:21.437Z,99878.31
2022-11-15T22:32:47.966Z,99872.97
2022-11-15T22:35:14.960Z,99876.38
2022-11-15T22:37:41.698Z,99870.16
2022-11-15T22:40:08.986Z,99851.44
2022-11-15T22:42:35.476Z,99865.53
2022-11-15T22:45:01.985Z,99863.81
2022-11-15T22:47:28.495Z,99859.34
2022-11-15T22:49:54.991Z,99860.03
2022-11-15T22:52:21.477Z,99855.78
2022-11-15T22:54:48.052Z,99851.16
2022-11-15T22:57:14.560Z,99846.78
2022-11-15T22:59:42.427Z,99845.94
2022-11-15T23:02:09.091Z,99840.59
2022-11-15T23:04:35.869Z,99841.56
2022-11-15T23:07:02.441Z,99835.34
2022-11-15T23:09:29.283Z,99839.72
2022-11-15T23:12:14.239Z,99835.25
2022-11-15T23:14:40.828Z,99834.50
2022-11-15T23:17:07.399Z,99832.69
2022-11-15T23:19:33.937Z,99829.88
2022-11-15T23:22:19.110Z,99821.09
2022-11-15T23:24:45.621Z,99820.16
2022-11-15T23:27:15.230Z,99813.94
2022-11-15T23:30:00.136Z,99816.50
2022-11-15T23:32:45.016Z,99813.81
2022-11-15T23:35:11.519Z,99792.25
2022-11-15T23:37:38.021Z,99806.38
2022-11-15T23:40:05.327Z,99798.34
2022-11-15T23:42:31.938Z,99785.06
2022-11-15T23:44:58.430Z,99794.09
2022-11-15T23:47:24.986Z,99789.44
2022-11-15T23:49:51.493Z,99788.63
2022-11-15T23:52:18.094Z,99787.75
2022-11-15T23:54:44.639Z,99783.38
2022-11-15T23:57:12.507Z,99771.81
2022-11-15T23:59:40.373Z,99781.53
